createdAt,value
2018-11-10T00:00:25.177Z,83588.00
2018-11-10T00:05:28.984Z,83597.00
2018-11-10T00:10:32.803Z,83605.00
2018-11-10T00:15:36.633Z,83616.00
2018-11-10T00:20:40.693Z,83642.00
2018-11-10T00:25:44.525Z,83701.00
2018-11-10T00:30:48.373Z,83761.00
2018-11-10T00:35:52.185Z,83811.00
2018-11-10T00:40:56.271Z,83813.00
2018-11-10T00:46:00.403Z,83831.00
2018-11-10T00:51:04.470Z,83844.00
2018-11-10T00:56:08.377Z,83845.00
2018-11-10T01:01:12.466Z,83847.00
2018-11-10T01:06:16.318Z,83853.00
2018-11-10T01:11:20.368Z,83862.00
2018-11-10T01:16:24.169Z,83874.00
2018-11-10T01:21:28.222Z,83874.00
2018-11-10T01:26:32.721Z,83882.00
2018-11-10T01:31:36.573Z,83886.00
2018-11-10T01:36:40.414Z,83897.00
2018-11-10T01:41:44.499Z,83909.00
2018-11-10T01:46:48.324Z,83926.00
2018-11-10T01:51:52.153Z,83927.00
2018-11-10T01:56:55.998Z,83950.00
2018-11-10T02:02:00.053Z,83951.00
2018-11-10T02:07:03.889Z,83961.00
2018-11-10T02:12:07.701Z,83961.00
2018-11-10T02:17:11.512Z,83967.00
2018-11-10T02:22:15.618Z,83956.00
2018-11-10T02:27:21.337Z,83922.00
2018-11-10T02:32:25.138Z,83901.00
2018-11-10T02:37:29.289Z,83884.00
2018-11-10T02:42:33.210Z,83872.00
2018-11-10T02:47:37.028Z,83876.00
2018-11-10T02:52:40.922Z,83867.00
2018-11-10T02:57:45.034Z,83865.00
2018-11-10T03:02:48.869Z,83857.00
2018-11-10T03:07:52.705Z,83858.00
2018-11-10T03:12:56.530Z,83871.00
2018-11-10T03:18:00.385Z,83871.00
2018-11-10T03:23:04.233Z,83877.00
2018-11-10T03:28:08.056Z,83872.00
2018-11-10T03:33:12.167Z,83873.00
2018-11-10T03:38:16.248Z,83874.00
2018-11-10T03:43:20.086Z,83871.00
2018-11-10T03:48:23.901Z,83871.00
2018-11-10T03:53:27.720Z,83857.00
2018-11-10T03:58:31.525Z,83843.00
2018-11-10T04:03:35.326Z,83835.00
2018-11-10T04:08:39.149Z,83819.00
2018-11-10T04:13:42.980Z,83798.00
2018-11-10T04:18:46.892Z,83786.00
2018-11-10T04:23:50.738Z,83784.00
2018-11-10T04:28:54.594Z,83784.00
2018-11-10T04:33:58.659Z,83779.00
2018-11-10T04:39:03.458Z,83781.00
2018-11-10T04:44:07.800Z,83786.00
2018-11-10T04:49:11.638Z,83792.00
2018-11-10T04:54:15.508Z,83800.00
2018-11-10T04:59:19.579Z,83801.00
2018-11-10T05:04:23.439Z,83801.00
2018-11-10T05:09:27.517Z,83798.00
2018-11-10T05:14:31.970Z,83784.00
2018-11-10T05:19:36.046Z,83772.00
2018-11-10T05:24:40.131Z,83774.00
2018-11-10T05:29:43.987Z,83766.00
2018-11-10T05:34:47.905Z,83758.00
2018-11-10T05:39:51.762Z,83752.00
2018-11-10T05:44:55.594Z,83750.00
2018-11-10T05:49:59.452Z,83754.00
2018-11-10T05:55:03.325Z,83746.00
2018-11-10T06:00:09.146Z,83743.00
2018-11-10T06:05:13.222Z,83747.00
2018-11-10T06:10:17.469Z,83751.00
2018-11-10T06:15:21.346Z,83753.00
2018-11-10T06:20:25.174Z,83749.00
2018-11-10T06:25:29.010Z,83743.00
2018-11-10T06:30:32.883Z,83744.00
2018-11-10T06:35:36.715Z,83753.00
2018-11-10T06:40:41.495Z,83752.00
2018-11-10T06:45:45.427Z,83759.00
2018-11-10T06:50:49.253Z,83764.00
2018-11-10T06:55:53.146Z,83782.00
2018-11-10T07:00:56.989Z,83822.00
2018-11-10T07:06:00.841Z,83857.00
2018-11-10T07:11:04.705Z,83866.00
2018-11-10T07:16:08.512Z,83878.00
2018-11-10T07:21:12.327Z,83899.00
2018-11-10T07:26:16.710Z,83914.00
2018-11-10T07:31:20.524Z,83925.00
2018-11-10T07:36:24.353Z,83924.00
2018-11-10T07:41:28.154Z,83927.00
2018-11-10T07:46:32.383Z,83923.00
2018-11-10T07:51:36.213Z,83909.00
2018-11-10T07:56:40.057Z,83920.00
2018-11-10T08:01:43.886Z,83914.00
2018-11-10T08:06:48.331Z,83920.00
2018-11-10T08:11:52.171Z,83931.00
2018-11-10T08:16:56.292Z,83929.00
2018-11-10T08:22:00.110Z,83935.00
2018-11-10T08:27:03.918Z,83936.00
2018-11-10T08:32:07.742Z,83930.00
2018-11-10T08:37:11.567Z,83931.00
2018-11-10T08:42:15.640Z,83942.00
2018-11-10T08:47:19.698Z,83951.00
2018-11-10T08:52:23.761Z,83955.00
2018-11-10T08:57:27.883Z,83956.00
2018-11-10T09:02:31.645Z,83958.00
2018-11-10T09:07:35.476Z,83966.00
2018-11-10T09:12:39.322Z,83955.00
2018-11-10T09:17:43.359Z,83952.00
2018-11-10T09:22:47.481Z,83956.00
2018-11-10T09:27:51.302Z,83951.00
2018-11-10T09:32:55.109Z,83959.00
2018-11-10T09:37:58.913Z,83953.00
2018-11-10T09:43:02.793Z,83952.00
2018-11-10T09:48:06.637Z,83955.00
2018-11-10T09:53:10.446Z,83951.00
2018-11-10T09:58:14.285Z,83961.00
2018-11-10T10:03:18.347Z,83961.00
2018-11-10T10:08:22.166Z,83961.00
2018-11-10T10:13:26.103Z,83963.00
2018-11-10T10:18:29.989Z,83961.00
2018-11-10T10:23:34.054Z,83958.00
2018-11-10T10:28:38.031Z,83962.00
2018-11-10T10:33:41.724Z,83963.00
2018-11-10T10:38:45.571Z,83971.00
2018-11-10T10:43:49.634Z,83979.00
2018-11-10T10:48:53.834Z,83991.00
2018-11-10T10:53:57.772Z,83991.00
2018-11-10T10:59:01.953Z,84000.00
2018-11-10T11:04:11.301Z,84004.00
2018-11-10T11:09:15.227Z,84004.00
2018-11-10T11:14:19.041Z,84002.00
2018-11-10T11:19:22.857Z,84006.00
2018-11-10T11:24:26.674Z,84008.00
2018-11-10T11:29:30.767Z,84012.00
2018-11-10T11:34:34.665Z,84018.00
2018-11-10T11:39:38.476Z,84012.00
2018-11-10T11:44:42.328Z,84023.00
2018-11-10T11:49:46.489Z,84023.00
2018-11-10T11:54:50.256Z,84024.00
2018-11-10T11:59:54.407Z,84022.00
2018-11-10T12:04:58.226Z,84022.00
2018-11-10T12:10:02.115Z,84022.00
2018-11-10T12:15:06.661Z,84026.00
2018-11-10T12:20:11.957Z,84028.00
2018-11-10T12:25:15.766Z,84036.00
2018-11-10T12:30:19.598Z,84042.00
2018-11-10T12:35:23.405Z,84042.00
2018-11-10T12:40:27.229Z,84044.00
2018-11-10T12:45:31.047Z,84046.00
2018-11-10T12:50:35.105Z,84045.00
2018-11-10T12:55:38.927Z,84051.00
2018-11-10T13:00:42.738Z,84052.00
2018-11-10T13:10:57.065Z,84053.00
2018-11-10T13:16:00.818Z,84059.00
2018-11-10T13:21:05.226Z,84052.00
2018-11-10T13:26:09.201Z,84050.00
2018-11-10T13:31:13.063Z,84051.00
2018-11-10T13:36:16.871Z,84060.00
2018-11-10T13:41:20.790Z,84064.00
2018-11-10T13:46:24.626Z,84063.00
2018-11-10T13:51:29.117Z,84066.00
2018-11-10T13:56:33.166Z,84069.00
2018-11-10T14:01:37.014Z,84068.00
2018-11-10T14:06:40.854Z,84071.00
2018-11-10T14:11:44.657Z,84075.00
2018-11-10T14:16:49.436Z,84083.00
2018-11-10T14:21:53.260Z,84082.00
2018-11-10T14:26:57.337Z,84077.00
2018-11-10T14:32:01.157Z,84077.00
2018-11-10T14:37:05.404Z,84077.00
2018-11-10T14:42:09.230Z,84079.00
2018-11-10T14:47:13.054Z,84083.00
2018-11-10T14:52:17.278Z,84087.00
2018-11-10T14:57:21.074Z,84089.00
2018-11-10T15:02:24.990Z,84085.00
2018-11-10T15:07:28.827Z,84085.00
2018-11-10T15:12:32.686Z,84081.00
2018-11-10T15:17:37.483Z,84091.00
2018-11-10T15:22:41.305Z,84094.00
2018-11-10T15:27:45.152Z,84088.00
2018-11-10T15:32:49.673Z,84087.00
2018-11-10T15:37:54.174Z,84090.00
2018-11-10T15:42:57.998Z,84083.00
2018-11-10T15:48:01.856Z,84078.00
2018-11-10T15:53:06.410Z,84079.00
2018-11-10T15:58:10.573Z,84076.00
2018-11-10T16:03:14.422Z,84071.00
2018-11-10T16:08:18.826Z,84067.00
2018-11-10T16:13:22.680Z,84060.00
2018-11-10T16:18:26.539Z,84045.00
2018-11-10T16:23:30.371Z,84037.00
2018-11-10T16:28:34.267Z,84034.00
2018-11-10T16:33:38.554Z,84030.00
2018-11-10T16:38:42.502Z,84023.00
2018-11-10T16:43:46.378Z,84027.00
2018-11-10T16:48:50.470Z,84039.00
2018-11-10T16:53:54.414Z,84040.00
2018-11-10T16:58:58.325Z,84046.00
2018-11-10T17:04:02.982Z,84044.00
2018-11-10T17:09:10.711Z,84041.00
2018-11-10T17:14:14.599Z,84040.00
2018-11-10T17:19:18.703Z,84045.00
2018-11-10T17:24:22.580Z,84047.00
2018-11-10T17:29:26.410Z,84043.00
2018-11-10T17:34:30.280Z,84046.00
2018-11-10T17:39:34.466Z,84044.00
2018-11-10T17:44:38.251Z,84047.00
2018-11-10T17:49:42.108Z,84041.00
2018-11-10T17:54:46.071Z,84044.00
2018-11-10T17:59:50.107Z,84047.00
2018-11-10T18:04:54.796Z,84049.00
2018-11-10T18:09:58.698Z,84052.00
2018-11-10T18:15:02.642Z,84053.00
2018-11-10T18:20:07.951Z,84050.00
2018-11-10T18:25:11.845Z,84042.00
2018-11-10T18:30:15.986Z,84045.00
2018-11-10T18:35:20.108Z,84046.00
2018-11-10T18:40:23.951Z,84047.00
2018-11-10T18:45:27.786Z,84053.00
2018-11-10T18:50:31.670Z,84052.00
2018-11-10T18:55:35.758Z,84049.00
2018-11-10T19:00:39.593Z,84009.00
2018-11-10T19:05:43.562Z,83989.00
2018-11-10T19:10:47.427Z,83969.00
2018-11-10T19:15:51.601Z,83953.00
2018-11-10T19:20:55.478Z,83946.00
2018-11-10T19:25:59.285Z,83933.00
2018-11-10T19:31:03.119Z,83929.00
2018-11-10T19:36:07.290Z,83917.00
2018-11-10T19:41:11.132Z,83907.00
2018-11-10T19:46:15.050Z,83906.00
2018-11-10T19:51:19.048Z,83903.00
2018-11-10T19:56:22.750Z,83902.00
2018-11-10T20:01:26.650Z,83898.00
2018-11-10T20:06:30.979Z,83904.00
2018-11-10T20:11:34.794Z,83897.00
2018-11-10T20:16:38.961Z,83906.00
2018-11-10T20:21:42.927Z,83900.00
2018-11-10T20:26:46.785Z,83898.00
2018-11-10T20:31:50.619Z,83896.00
2018-11-10T20:36:54.462Z,83883.00
2018-11-10T20:41:58.580Z,83886.00
2018-11-10T20:47:02.434Z,83887.00
2018-11-10T20:52:06.673Z,83890.00
2018-11-10T20:57:10.694Z,83887.00
2018-11-10T21:02:14.551Z,83882.00
2018-11-10T21:07:18.434Z,83882.00
2018-11-10T21:12:22.282Z,83875.00
2018-11-10T21:17:26.098Z,83867.00
2018-11-10T21:22:30.187Z,83873.00
2018-11-10T21:27:34.047Z,83881.00
2018-11-10T21:32:37.862Z,83881.00
2018-11-10T21:37:41.717Z,83889.00
2018-11-10T21:42:45.929Z,83879.00
2018-11-10T21:47:50.062Z,83877.00
2018-11-10T21:52:53.906Z,83874.00
2018-11-10T21:57:57.738Z,83870.00
2018-11-10T22:03:03.255Z,83875.00
2018-11-10T22:08:07.075Z,83873.00
2018-11-10T22:13:10.906Z,83870.00
2018-11-10T22:18:15.020Z,83865.00
2018-11-10T22:23:18.838Z,83855.00
2018-11-10T22:28:22.658Z,83854.00
2018-11-10T22:33:26.499Z,83845.00
2018-11-10T22:38:30.587Z,83845.00
2018-11-10T22:43:34.663Z,83835.00
2018-11-10T22:48:38.513Z,83837.00
2018-11-10T22:53:42.372Z,83838.00
2018-11-10T22:58:46.231Z,83832.00
2018-11-10T23:03:50.474Z,83836.00
2018-11-10T23:08:54.519Z,83839.00
2018-11-10T23:13:58.349Z,83841.00
2018-11-10T23:19:02.171Z,83851.00
2018-11-10T23:24:06.316Z,83850.00
2018-11-10T23:29:10.146Z,83858.00
2018-11-10T23:34:13.969Z,83861.00
2018-11-10T23:39:18.039Z,83861.00
2018-11-10T23:44:21.871Z,83852.00
2018-11-10T23:49:25.939Z,83855.00
2018-11-10T23:54:30.014Z,83850.00
2018-11-10T23:59:33.840Z,83845.00
